createdAt,value
2018-08-11T00:00:30.810Z,19.86
2018-08-11T00:05:34.361Z,19.86
2018-08-11T00:10:37.923Z,19.90
2018-08-11T00:15:41.637Z,19.95
2018-08-11T00:20:45.224Z,20.04
2018-08-11T00:25:48.844Z,20.22
2018-08-11T00:30:52.389Z,20.23
2018-08-11T00:35:55.909Z,20.19
2018-08-11T00:40:59.517Z,20.20
2018-08-11T00:46:03.808Z,20.07
2018-08-11T00:51:07.529Z,19.98
2018-08-11T00:56:11.073Z,19.92
2018-08-11T01:01:14.975Z,19.97
2018-08-11T01:06:18.585Z,19.92
2018-08-11T01:11:22.132Z,19.91
2018-08-11T01:16:25.652Z,19.82
2018-08-11T01:21:29.397Z,19.70
2018-08-11T01:26:33.160Z,19.68
2018-08-11T01:31:36.756Z,19.58
2018-08-11T01:36:40.495Z,19.55
2018-08-11T01:41:44.052Z,19.51
2018-08-11T01:46:47.573Z,19.41
2018-08-11T01:51:51.162Z,19.30
2018-08-11T01:56:54.862Z,19.28
2018-08-11T02:01:58.389Z,19.33
2018-08-11T02:07:02.075Z,19.37
2018-08-11T02:12:05.820Z,19.41
2018-08-11T02:17:09.385Z,19.36
2018-08-11T02:22:12.968Z,19.19
2018-08-11T02:27:16.510Z,19.34
2018-08-11T02:32:20.015Z,19.29
2018-08-11T02:37:23.682Z,19.20
2018-08-11T02:42:27.229Z,19.12
2018-08-11T02:47:30.849Z,19.19
2018-08-11T02:52:34.447Z,19.11
2018-08-11T02:57:37.939Z,19.13
2018-08-11T03:02:41.605Z,19.17
2018-08-11T03:07:45.286Z,19.09
2018-08-11T03:12:48.865Z,19.02
2018-08-11T03:17:52.378Z,18.96
2018-08-11T03:22:56.840Z,19.05
2018-08-11T03:28:00.441Z,18.96
2018-08-11T03:33:03.981Z,19.01
2018-08-11T03:38:07.997Z,18.96
2018-08-11T03:43:11.560Z,18.97
2018-08-11T03:48:15.111Z,18.95
2018-08-11T03:53:18.633Z,18.97
2018-08-11T03:58:22.774Z,19.05
2018-08-11T04:03:26.385Z,19.08
2018-08-11T04:08:30.077Z,19.08
2018-08-11T04:13:33.626Z,19.10
2018-08-11T04:18:37.137Z,19.25
2018-08-11T04:23:40.641Z,19.28
2018-08-11T04:28:44.221Z,19.28
2018-08-11T04:33:47.816Z,19.28
2018-08-11T04:38:51.334Z,19.35
2018-08-11T04:43:54.845Z,19.42
2018-08-11T04:48:58.410Z,19.47
2018-08-11T04:54:01.995Z,19.61
2018-08-11T04:59:05.547Z,19.60
2018-08-11T05:04:09.018Z,19.63
2018-08-11T05:09:12.836Z,19.66
2018-08-11T05:14:16.662Z,19.70
2018-08-11T05:19:20.159Z,19.80
2018-08-11T05:24:24.562Z,19.84
2018-08-11T05:29:28.142Z,19.87
2018-08-11T05:34:31.748Z,19.88
2018-08-11T05:39:35.291Z,20.19
2018-08-11T05:44:38.813Z,20.37
2018-08-11T05:49:42.323Z,20.43
2018-08-11T05:54:45.754Z,20.39
2018-08-11T05:59:49.395Z,20.62
2018-08-11T06:04:52.998Z,20.75
2018-08-11T06:15:12.331Z,21.19
2018-08-11T06:20:15.965Z,21.20
2018-08-11T06:25:19.563Z,21.29
2018-08-11T06:30:23.133Z,21.26
2018-08-11T06:35:27.496Z,21.36
2018-08-11T06:40:31.908Z,21.41
2018-08-11T06:45:35.574Z,21.43
2018-08-11T06:50:39.057Z,21.49
2018-08-11T06:55:42.639Z,21.57
2018-08-11T07:00:46.137Z,21.73
2018-08-11T07:05:49.688Z,21.78
2018-08-11T07:10:53.211Z,21.89
2018-08-11T07:15:56.849Z,21.90
2018-08-11T07:21:00.384Z,21.96
2018-08-11T07:26:03.950Z,22.05
2018-08-11T07:31:07.492Z,22.06
2018-08-11T07:36:11.075Z,22.07
2018-08-11T07:41:14.652Z,22.11
2018-08-11T07:46:18.651Z,22.29
2018-08-11T07:51:22.325Z,22.27
2018-08-11T07:56:25.825Z,22.29
2018-08-11T08:01:29.524Z,22.45
2018-08-11T08:11:39.809Z,22.54
2018-08-11T08:16:43.626Z,22.58
2018-08-11T08:21:47.154Z,22.68
2018-08-11T08:26:50.801Z,22.69
2018-08-11T08:31:54.901Z,22.77
2018-08-11T08:36:59.007Z,22.92
2018-08-11T08:42:02.784Z,22.89
2018-08-11T08:47:06.540Z,23.29
2018-08-11T08:52:10.260Z,23.45
2018-08-11T08:57:13.852Z,23.87
2018-08-11T09:02:17.649Z,23.93
2018-08-11T09:07:21.326Z,23.95
2018-08-11T09:12:25.058Z,23.91
2018-08-11T09:17:28.633Z,23.75
2018-08-11T09:22:38.484Z,23.83
2018-08-11T09:27:42.096Z,23.83
2018-08-11T09:32:51.981Z,23.96
2018-08-11T09:37:55.551Z,24.02
2018-08-11T09:42:59.383Z,23.99
2018-08-11T09:48:02.939Z,23.84
2018-08-11T09:53:06.699Z,23.95
2018-08-11T09:58:10.326Z,24.43
2018-08-11T10:03:13.953Z,24.35
2018-08-11T10:08:17.437Z,24.08
2018-08-11T10:13:21.014Z,23.87
2018-08-11T10:18:24.711Z,23.65
2018-08-11T10:23:28.242Z,23.60
2018-08-11T10:28:32.058Z,24.17
2018-08-11T10:33:35.647Z,24.26
2018-08-11T10:38:39.266Z,24.64
2018-08-11T10:43:42.819Z,23.93
2018-08-11T10:48:46.492Z,24.04
2018-08-11T10:53:50.122Z,24.29
2018-08-11T10:58:53.736Z,24.73
2018-08-11T11:03:57.386Z,24.64
2018-08-11T11:09:01.033Z,24.65
2018-08-11T11:14:04.704Z,24.12
2018-08-11T11:19:09.594Z,23.85
2018-08-11T11:24:13.223Z,24.12
2018-08-11T11:29:16.789Z,24.83
2018-08-11T11:34:22.501Z,25.22
2018-08-11T11:39:28.158Z,25.18
2018-08-11T11:44:31.725Z,24.49
2018-08-11T11:49:35.271Z,23.86
2018-08-11T11:54:38.855Z,24.95
2018-08-11T11:59:42.422Z,25.34
2018-08-11T12:04:46.649Z,25.59
2018-08-11T12:09:50.237Z,25.40
2018-08-11T12:14:53.993Z,25.84
2018-08-11T12:19:59.585Z,26.33
2018-08-11T12:25:03.416Z,25.72
2018-08-11T12:30:09.200Z,26.00
2018-08-11T12:35:12.863Z,26.36
2018-08-11T12:40:16.407Z,26.47
2018-08-11T12:45:20.015Z,26.26
2018-08-11T12:50:23.647Z,26.65
2018-08-11T12:55:27.155Z,26.86
2018-08-11T13:00:36.105Z,27.22
2018-08-11T13:05:39.674Z,26.44
2018-08-11T13:10:43.197Z,25.81
2018-08-11T13:15:46.833Z,26.70
2018-08-11T13:20:50.479Z,26.91
2018-08-11T13:25:54.044Z,26.41
2018-08-11T13:30:57.613Z,26.48
2018-08-11T13:36:01.154Z,26.19
2018-08-11T13:41:04.689Z,25.95
2018-08-11T13:46:08.297Z,26.44
2018-08-11T13:51:11.856Z,26.61
2018-08-11T13:56:15.982Z,26.43
2018-08-11T14:01:19.531Z,26.03
2018-08-11T14:06:23.091Z,26.45
2018-08-11T14:11:26.645Z,26.74
2018-08-11T14:16:30.198Z,26.71
2018-08-11T14:21:34.296Z,26.99
2018-08-11T14:26:38.016Z,26.87
2018-08-11T14:31:48.127Z,26.98
2018-08-11T14:36:51.688Z,26.98
2018-08-11T14:41:56.115Z,27.21
2018-08-11T14:46:59.838Z,27.37
2018-08-11T14:52:03.737Z,27.83
2018-08-11T14:57:07.344Z,28.21
2018-08-11T15:02:11.047Z,28.96
2018-08-11T15:07:15.504Z,29.51
2018-08-11T15:12:19.055Z,29.44
2018-08-11T15:17:22.948Z,29.58
2018-08-11T15:22:27.529Z,30.01
2018-08-11T15:27:31.393Z,29.03
2018-08-11T15:32:34.936Z,29.63
2018-08-11T15:37:38.670Z,28.66
2018-08-11T15:42:42.245Z,31.08
2018-08-11T15:47:45.848Z,32.40
2018-08-11T15:52:49.424Z,31.88
2018-08-11T15:57:52.998Z,31.84
2018-08-11T16:02:56.540Z,33.16
2018-08-11T16:08:00.417Z,33.30
2018-08-11T16:13:04.171Z,32.01
2018-08-11T16:18:07.841Z,35.17
2018-08-11T16:23:12.002Z,35.50
2018-08-11T16:28:15.522Z,36.97
2018-08-11T16:33:19.038Z,37.12
2018-08-11T16:38:22.622Z,34.13
2018-08-11T16:43:26.346Z,33.51
2018-08-11T16:48:30.072Z,31.97
2018-08-11T16:53:33.593Z,31.75
2018-08-11T16:58:37.190Z,30.24
2018-08-11T17:03:41.555Z,30.20
2018-08-11T17:08:45.357Z,28.97
2018-08-11T17:13:49.881Z,27.88
2018-08-11T17:18:53.693Z,27.31
2018-08-11T17:23:57.308Z,27.43
2018-08-11T17:29:00.791Z,27.72
2018-08-11T17:34:04.716Z,27.68
2018-08-11T17:39:10.066Z,27.90
2018-08-11T17:44:13.610Z,28.02
2018-08-11T17:49:17.371Z,27.23
2018-08-11T17:54:20.860Z,25.75
2018-08-11T17:59:24.361Z,25.11
2018-08-11T18:04:28.680Z,24.73
2018-08-11T18:09:32.334Z,24.39
2018-08-11T18:14:35.917Z,24.12
2018-08-11T18:19:39.903Z,23.98
2018-08-11T18:24:43.793Z,23.78
2018-08-11T18:29:47.330Z,23.67
2018-08-11T18:34:51.063Z,23.54
2018-08-11T18:39:54.905Z,23.29
2018-08-11T18:44:58.769Z,23.16
2018-08-11T18:50:02.624Z,23.06
2018-08-11T18:55:08.124Z,22.92
2018-08-11T19:00:17.694Z,22.78
2018-08-11T19:05:21.801Z,22.69
2018-08-11T19:10:25.616Z,22.59
2018-08-11T19:15:29.698Z,22.45
2018-08-11T19:20:33.540Z,22.45
2018-08-11T19:25:38.067Z,22.38
2018-08-11T19:30:41.485Z,22.23
2018-08-11T19:35:45.022Z,22.22
2018-08-11T19:40:48.601Z,22.12
2018-08-11T19:45:53.677Z,22.01
2018-08-11T19:50:57.300Z,21.84
2018-08-11T19:56:01.030Z,21.62
2018-08-11T20:01:04.497Z,21.29
2018-08-11T20:06:08.101Z,21.05
2018-08-11T20:11:12.216Z,21.18
2018-08-11T20:16:16.352Z,21.14
2018-08-11T20:21:19.886Z,20.80
2018-08-11T20:26:24.829Z,20.44
2018-08-11T20:31:29.686Z,20.54
2018-08-11T20:36:33.666Z,20.43
2018-08-11T20:41:37.613Z,20.44
2018-08-11T20:46:41.489Z,20.34
2018-08-11T20:51:45.117Z,20.37
2018-08-11T20:56:48.670Z,20.31
2018-08-11T21:01:53.436Z,20.11
2018-08-11T21:06:57.224Z,19.85
2018-08-11T21:12:00.722Z,19.73
2018-08-11T21:17:06.490Z,19.70
2018-08-11T21:22:12.564Z,19.72
2018-08-11T21:27:17.181Z,19.70
2018-08-11T21:32:22.962Z,19.58
2018-08-11T21:37:28.807Z,19.36
2018-08-11T21:42:34.230Z,18.88
2018-08-11T21:47:38.805Z,18.93
2018-08-11T21:52:44.997Z,19.09
2018-08-11T21:57:52.111Z,19.11
2018-08-11T22:02:57.412Z,19.06
2018-08-11T22:08:02.778Z,18.98
2018-08-11T22:13:06.524Z,18.85
2018-08-11T22:18:10.113Z,18.78
2018-08-11T22:23:13.974Z,18.60
2018-08-11T22:28:17.805Z,18.58
2018-08-11T22:33:21.484Z,18.42
2018-08-11T22:38:25.126Z,18.19
2018-08-11T22:43:28.772Z,18.13
2018-08-11T22:48:32.501Z,18.12
2018-08-11T22:53:36.240Z,18.01
2018-08-11T22:58:39.865Z,17.59
2018-08-11T23:03:43.352Z,17.52
2018-08-11T23:08:46.897Z,17.52
2018-08-11T23:13:50.341Z,17.61
2018-08-11T23:18:53.792Z,17.62
2018-08-11T23:23:57.265Z,17.60
2018-08-11T23:29:00.854Z,17.38
2018-08-11T23:34:04.312Z,17.41
2018-08-11T23:39:08.646Z,17.32
2018-08-11T23:44:12.217Z,17.22
2018-08-11T23:49:15.673Z,17.22
2018-08-11T23:54:19.192Z,17.16
2018-08-11T23:59:22.744Z,17.25
